Cedar Springs, Texas
Current Conditions -  °F | °C
As of 9:35 AM on Saturday 20 Dec 2014 (Local Time) from KT35 Reporting Station
Haze Haze  
Wind Chill: 48°   Ceiling: 700
Heat Index: 50°   Visibility: 5mi
Dew Point: 47°   Wind: 5mph
Humidity: 92%   Direction: 20°NNE
Pressure: 30.25"   Gusts: NA
Location:  31.0981°N, 96.99°W
Report Text: KT35 201535Z AUTO 02004KT 5SM BR OVC007 10/09 A3025 RMK AO2 T00980086
Loading
Personal Weather Stations






























Interactive Weather Map New forecast layout! Learn more

10-Day Weather Forecast

Advertisements
Track Severe Weather on mobile